createdAt,value
2018-06-20T00:00:10.774Z,91.40
2018-06-20T00:02:45.095Z,91.60
2018-06-20T00:05:19.405Z,91.70
2018-06-20T00:07:53.751Z,91.40
2018-06-20T00:10:27.996Z,91.50
2018-06-20T00:13:02.419Z,91.50
2018-06-20T00:15:36.690Z,91.70
2018-06-20T00:18:11.027Z,91.80
2018-06-20T00:20:45.456Z,92.00
2018-06-20T00:23:19.782Z,92.00
2018-06-20T00:25:54.206Z,91.90
2018-06-20T00:28:28.427Z,91.80
2018-06-20T00:31:02.627Z,92.00
2018-06-20T00:33:36.963Z,91.80
2018-06-20T00:36:11.289Z,91.80
2018-06-20T00:38:45.614Z,92.10
2018-06-20T00:41:19.905Z,92.00
2018-06-20T00:43:54.162Z,92.00
2018-06-20T00:46:28.466Z,92.00
2018-06-20T00:49:02.698Z,92.00
2018-06-20T00:51:36.890Z,91.90
2018-06-20T00:54:11.112Z,91.90
2018-06-20T00:56:45.283Z,91.90
2018-06-20T00:59:19.671Z,92.10
2018-06-20T01:01:54.015Z,92.10
2018-06-20T01:04:28.362Z,92.30
2018-06-20T01:07:02.636Z,92.00
2018-06-20T01:09:37.077Z,92.00
2018-06-20T01:12:11.417Z,92.00
2018-06-20T01:17:19.804Z,92.00
2018-06-20T01:19:54.070Z,92.00
2018-06-20T01:22:28.355Z,92.10
2018-06-20T01:25:02.801Z,92.10
2018-06-20T01:27:37.088Z,92.40
2018-06-20T01:30:11.306Z,92.30
2018-06-20T01:32:45.487Z,92.30
2018-06-20T01:35:19.690Z,92.30
2018-06-20T01:37:53.970Z,92.30
2018-06-20T01:40:28.271Z,92.20
2018-06-20T01:43:02.680Z,92.40
2018-06-20T01:45:37.314Z,92.30
2018-06-20T01:48:11.486Z,92.40
2018-06-20T01:50:45.721Z,92.30
2018-06-20T01:53:19.970Z,92.40
2018-06-20T01:55:54.305Z,92.70
2018-06-20T01:58:28.627Z,92.60
2018-06-20T02:01:02.870Z,92.50
2018-06-20T02:03:37.158Z,92.60
2018-06-20T02:06:11.364Z,92.60
2018-06-20T02:08:45.689Z,92.70
2018-06-20T02:11:20.043Z,92.70
2018-06-20T02:13:54.509Z,92.70
2018-06-20T02:16:28.827Z,92.70
2018-06-20T02:19:03.024Z,92.70
2018-06-20T02:21:37.226Z,92.80
2018-06-20T02:24:11.458Z,92.70
2018-06-20T02:26:45.694Z,92.80
2018-06-20T02:29:20.040Z,92.80
2018-06-20T02:31:54.292Z,92.70
2018-06-20T02:34:28.600Z,92.80
2018-06-20T02:39:36.959Z,92.80
2018-06-20T02:42:11.224Z,92.70
2018-06-20T02:44:45.547Z,92.80
2018-06-20T02:47:24.100Z,92.90
2018-06-20T02:49:58.551Z,92.90
2018-06-20T02:52:32.755Z,92.90
2018-06-20T02:55:07.123Z,92.90
2018-06-20T02:57:41.355Z,92.90
2018-06-20T03:00:15.676Z,92.90
2018-06-20T03:02:50.050Z,92.90
2018-06-20T03:05:24.270Z,92.90
2018-06-20T03:07:58.537Z,92.90
2018-06-20T03:10:32.731Z,92.80
2018-06-20T03:13:06.995Z,92.70
2018-06-20T03:15:41.237Z,92.70
2018-06-20T03:18:15.503Z,92.70
2018-06-20T03:20:49.746Z,92.70
2018-06-20T03:23:24.047Z,92.70
2018-06-20T03:25:58.318Z,92.40
2018-06-20T03:28:32.675Z,92.70
2018-06-20T03:31:07.101Z,92.80
2018-06-20T03:33:41.434Z,92.70
2018-06-20T03:36:15.838Z,92.80
2018-06-20T03:38:50.203Z,92.50
2018-06-20T03:41:24.499Z,92.70
2018-06-20T03:43:58.790Z,92.30
2018-06-20T03:46:33.429Z,92.40
2018-06-20T03:49:07.711Z,92.60
2018-06-20T03:51:42.127Z,92.50
2018-06-20T03:54:16.507Z,92.30
2018-06-20T03:56:50.743Z,92.20
2018-06-20T03:59:25.018Z,92.20
2018-06-20T04:01:59.543Z,92.10
2018-06-20T04:04:33.755Z,92.10
2018-06-20T04:07:08.056Z,92.10
2018-06-20T04:09:42.340Z,92.00
2018-06-20T04:12:16.718Z,91.90
2018-06-20T04:14:51.071Z,91.90
2018-06-20T04:17:25.374Z,91.90
2018-06-20T04:22:33.876Z,92.00
2018-06-20T04:25:08.075Z,92.00
2018-06-20T04:27:42.407Z,91.70
2018-06-20T04:30:16.650Z,91.70
2018-06-20T04:32:50.984Z,91.80
2018-06-20T04:35:25.403Z,91.70
2018-06-20T04:37:59.791Z,91.60
2018-06-20T04:40:34.202Z,91.70
2018-06-20T04:43:08.454Z,91.70
2018-06-20T04:45:42.665Z,91.50
2018-06-20T04:48:17.134Z,91.60
2018-06-20T04:50:51.334Z,91.50
2018-06-20T04:53:25.623Z,91.50
2018-06-20T04:56:00.053Z,92.00
2018-06-20T04:58:34.299Z,91.40
2018-06-20T05:01:08.736Z,91.50
2018-06-20T05:03:42.922Z,91.50
2018-06-20T05:06:17.335Z,91.50
2018-06-20T05:08:51.563Z,91.50
2018-06-20T05:11:26.002Z,91.50
2018-06-20T05:14:00.262Z,91.30
2018-06-20T05:16:34.600Z,91.30
2018-06-20T05:19:08.714Z,91.40
2018-06-20T05:21:43.239Z,91.10
2018-06-20T05:24:17.508Z,91.00
2018-06-20T05:26:51.696Z,90.80
2018-06-20T05:29:25.995Z,90.50
2018-06-20T05:32:00.390Z,90.70
2018-06-20T05:34:34.641Z,90.60
2018-06-20T05:37:08.778Z,90.30
2018-06-20T05:39:43.042Z,90.50
2018-06-20T05:42:17.487Z,90.70
2018-06-20T05:44:51.714Z,90.50
2018-06-20T05:47:25.903Z,90.30
2018-06-20T05:50:00.151Z,90.20
2018-06-20T05:52:34.618Z,90.40
2018-06-20T05:55:08.877Z,90.20
2018-06-20T05:57:43.309Z,89.50
2018-06-20T06:00:17.487Z,89.00
2018-06-20T06:02:51.830Z,89.40
2018-06-20T06:05:26.131Z,88.90
2018-06-20T06:08:07.303Z,88.00
2018-06-20T06:10:41.710Z,88.00
2018-06-20T06:13:16.128Z,87.90
2018-06-20T06:15:50.362Z,88.10
2018-06-20T06:18:24.717Z,88.00
2018-06-20T06:20:59.131Z,87.60
2018-06-20T06:23:33.455Z,87.30
2018-06-20T06:26:07.719Z,87.40
2018-06-20T06:28:42.036Z,87.60
2018-06-20T06:31:16.387Z,88.20
2018-06-20T06:33:50.739Z,87.50
2018-06-20T06:36:25.022Z,87.70
2018-06-20T06:38:59.535Z,87.40
2018-06-20T06:41:33.822Z,87.30
2018-06-20T06:44:08.042Z,88.00
2018-06-20T06:46:42.309Z,88.00
2018-06-20T06:49:16.618Z,87.90
2018-06-20T06:51:50.890Z,87.50
2018-06-20T06:54:25.345Z,86.70
2018-06-20T06:56:59.739Z,86.50
2018-06-20T06:59:34.101Z,86.90
2018-06-20T07:02:08.271Z,86.70
2018-06-20T07:04:42.487Z,87.00
2018-06-20T07:07:16.791Z,86.70
2018-06-20T07:09:51.081Z,86.80
2018-06-20T07:12:25.502Z,86.10
2018-06-20T07:14:59.857Z,85.80
2018-06-20T07:17:34.311Z,85.80
2018-06-20T07:20:08.731Z,85.70
2018-06-20T07:22:43.078Z,84.80
2018-06-20T07:25:17.251Z,84.60
2018-06-20T07:27:51.482Z,85.10
2018-06-20T07:30:25.761Z,84.20
2018-06-20T07:35:34.081Z,84.00
2018-06-20T07:38:08.187Z,84.20
2018-06-20T07:40:42.546Z,83.50
2018-06-20T07:45:51.117Z,83.20
2018-06-20T07:48:25.322Z,83.20
2018-06-20T07:50:59.618Z,83.50
2018-06-20T07:53:34.071Z,82.80
2018-06-20T07:56:08.382Z,82.60
2018-06-20T07:58:48.194Z,82.30
2018-06-20T08:01:39.354Z,82.20
2018-06-20T08:04:18.911Z,82.00
2018-06-20T08:06:58.433Z,82.00
2018-06-20T08:09:38.156Z,81.70
2018-06-20T08:12:17.787Z,81.20
2018-06-20T08:14:57.394Z,82.00
2018-06-20T08:17:36.950Z,80.90
2018-06-20T08:20:16.734Z,80.20
2018-06-20T08:22:51.197Z,80.00
2018-06-20T08:25:25.483Z,80.50
2018-06-20T08:27:59.796Z,80.00
2018-06-20T08:30:34.103Z,80.70
2018-06-20T08:33:08.469Z,80.40
2018-06-20T08:35:42.778Z,78.90
2018-06-20T08:38:17.049Z,79.50
2018-06-20T08:40:51.451Z,79.40
2018-06-20T08:43:25.898Z,79.30
2018-06-20T08:46:00.246Z,77.70
2018-06-20T08:48:34.406Z,75.70
2018-06-20T08:51:08.602Z,74.80
2018-06-20T08:53:42.938Z,74.70
2018-06-20T08:56:17.361Z,74.20
2018-06-20T08:58:51.606Z,73.80
2018-06-20T09:01:25.845Z,73.90
2018-06-20T09:06:45.394Z,73.40
2018-06-20T09:10:25.351Z,72.20
2018-06-20T09:13:05.116Z,72.70
2018-06-20T09:15:44.789Z,71.80
2018-06-20T09:18:24.710Z,71.30
2018-06-20T09:20:58.865Z,70.30
2018-06-20T09:23:33.055Z,70.70
2018-06-20T09:26:07.362Z,70.30
2018-06-20T09:28:41.519Z,69.80
2018-06-20T09:31:15.865Z,69.80
2018-06-20T09:33:50.060Z,69.20
2018-06-20T09:36:24.321Z,69.20
2018-06-20T09:38:58.850Z,70.00
2018-06-20T09:41:33.099Z,69.70
2018-06-20T09:44:07.382Z,70.40
2018-06-20T09:46:41.726Z,70.70
2018-06-20T09:49:16.093Z,70.70
2018-06-20T09:51:50.459Z,70.80
2018-06-20T09:54:25.170Z,70.70
2018-06-20T09:56:59.300Z,70.90
2018-06-20T09:59:38.959Z,71.00
2018-06-20T10:02:18.490Z,69.50
2018-06-20T10:04:58.239Z,69.90
2018-06-20T10:07:37.772Z,68.70
2018-06-20T10:10:17.290Z,68.50
2018-06-20T10:12:56.851Z,68.20
2018-06-20T10:15:31.002Z,68.40
2018-06-20T10:18:05.213Z,68.20
2018-06-20T10:23:13.438Z,69.10
2018-06-20T10:25:47.702Z,69.10
2018-06-20T10:28:21.874Z,69.10
2018-06-20T10:30:56.054Z,68.80
2018-06-20T10:33:30.183Z,68.10
2018-06-20T10:36:04.646Z,68.30
2018-06-20T10:38:38.970Z,66.90
2018-06-20T10:41:13.270Z,65.40
2018-06-20T10:43:47.754Z,66.90
2018-06-20T10:46:27.543Z,66.70
2018-06-20T10:49:01.972Z,67.00
2018-06-20T10:51:36.314Z,65.90
2018-06-20T10:54:10.719Z,66.00
2018-06-20T10:56:50.399Z,65.00
2018-06-20T10:59:30.001Z,64.60
2018-06-20T11:04:15.642Z,64.60
2018-06-20T11:06:55.380Z,64.90
2018-06-20T11:09:34.936Z,63.00
2018-06-20T11:12:14.778Z,63.90
2018-06-20T11:14:48.923Z,63.50
2018-06-20T11:17:23.098Z,63.40
2018-06-20T11:20:01.511Z,63.50
2018-06-20T11:22:35.714Z,62.80
2018-06-20T11:25:09.886Z,59.80
2018-06-20T11:27:44.103Z,59.30
2018-06-20T11:30:18.552Z,59.80
2018-06-20T11:32:52.863Z,59.60
2018-06-20T11:35:27.058Z,59.50
2018-06-20T11:38:01.362Z,59.70
2018-06-20T11:40:35.574Z,59.70
2018-06-20T11:43:09.828Z,58.30
2018-06-20T11:45:49.570Z,59.50
2018-06-20T11:48:23.886Z,58.50
2018-06-20T11:50:58.214Z,57.40
2018-06-20T11:53:32.611Z,58.70
2018-06-20T11:56:06.762Z,58.40
2018-06-20T11:58:46.494Z,57.30
2018-06-20T12:01:26.272Z,56.70
2018-06-20T12:04:05.956Z,57.30
2018-06-20T12:06:45.678Z,57.70
2018-06-20T12:09:25.366Z,56.60
2018-06-20T12:12:04.967Z,55.20
2018-06-20T12:14:44.448Z,55.40
2018-06-20T12:17:24.022Z,57.00
2018-06-20T12:20:03.478Z,56.50
2018-06-20T12:22:43.072Z,56.40
2018-06-20T12:25:22.658Z,56.70
2018-06-20T12:28:02.491Z,57.60
2018-06-20T12:30:42.074Z,57.10
2018-06-20T12:33:21.602Z,57.60
2018-06-20T12:36:01.108Z,57.50
2018-06-20T12:38:40.742Z,56.90
2018-06-20T12:41:20.338Z,56.50
2018-06-20T12:43:59.998Z,56.90
2018-06-20T12:46:39.495Z,57.90
2018-06-20T12:49:17.545Z,58.20
2018-06-20T12:51:51.743Z,57.70
2018-06-20T12:54:26.272Z,56.40
2018-06-20T12:57:00.406Z,56.00
2018-06-20T12:59:34.724Z,56.10
2018-06-20T13:02:08.902Z,55.00
2018-06-20T13:04:43.220Z,54.90
2018-06-20T13:07:17.758Z,54.40
2018-06-20T13:09:53.704Z,53.80
2018-06-20T13:12:27.915Z,53.40
2018-06-20T13:15:02.237Z,52.20
2018-06-20T13:17:36.564Z,52.70
2018-06-20T13:20:10.863Z,53.50
2018-06-20T13:22:45.104Z,53.70
2018-06-20T13:25:19.393Z,52.30
2018-06-20T13:27:53.795Z,52.20
2018-06-20T13:30:28.150Z,52.20
2018-06-20T13:33:07.765Z,52.60
2018-06-20T13:35:47.277Z,53.70
2018-06-20T13:38:26.802Z,54.10
2018-06-20T13:41:06.648Z,54.60
2018-06-20T13:43:46.211Z,54.10
2018-06-20T13:46:25.952Z,53.60
2018-06-20T13:49:00.292Z,53.30
2018-06-20T13:51:34.530Z,52.40
2018-06-20T13:54:08.971Z,53.20
2018-06-20T13:56:43.263Z,53.90
2018-06-20T13:59:17.522Z,53.40
2018-06-20T14:01:52.136Z,53.50
2018-06-20T14:04:26.422Z,52.20
2018-06-20T14:07:00.630Z,53.20
2018-06-20T14:09:35.027Z,51.80
2018-06-20T14:12:09.407Z,50.60
2018-06-20T14:14:43.662Z,50.90
2018-06-20T14:19:57.495Z,51.70
2018-06-20T14:22:31.626Z,50.40
2018-06-20T14:25:06.042Z,51.20
2018-06-20T14:27:40.452Z,50.70
2018-06-20T14:30:20.247Z,50.70
2018-06-20T14:32:59.953Z,50.60
2018-06-20T14:35:39.560Z,51.80
2018-06-20T14:40:58.658Z,52.30
2018-06-20T14:43:38.439Z,51.70
2018-06-20T14:46:17.209Z,51.50
2018-06-20T14:48:51.367Z,51.60
2018-06-20T14:51:25.803Z,52.20
2018-06-20T14:54:00.048Z,51.50
2018-06-20T14:56:34.351Z,50.20
2018-06-20T14:59:08.626Z,51.70
2018-06-20T15:01:42.883Z,49.60
2018-06-20T15:04:17.182Z,48.80
2018-06-20T15:06:51.663Z,48.00
2018-06-20T15:09:25.850Z,48.30
2018-06-20T15:12:00.343Z,46.70
2018-06-20T15:14:34.618Z,47.70
2018-06-20T15:17:14.591Z,47.50
2018-06-20T15:19:48.720Z,48.70
2018-06-20T15:22:23.195Z,48.40
2018-06-20T15:24:57.503Z,48.70
2018-06-20T15:27:37.312Z,48.20
2018-06-20T15:30:16.906Z,48.10
2018-06-20T15:32:56.494Z,48.80
2018-06-20T15:36:38.294Z,49.70
2018-06-20T15:39:12.679Z,49.50
2018-06-20T15:41:46.985Z,50.70
2018-06-20T15:44:21.174Z,50.20
2018-06-20T15:46:55.518Z,49.90
2018-06-20T15:49:29.795Z,50.40
2018-06-20T15:52:04.178Z,48.70
2018-06-20T15:54:38.483Z,49.10
2018-06-20T15:57:12.982Z,48.30
2018-06-20T15:59:47.162Z,48.50
2018-06-20T16:02:21.448Z,48.60
2018-06-20T16:04:55.725Z,48.30
2018-06-20T16:07:29.926Z,48.40
2018-06-20T16:10:06.292Z,47.80
2018-06-20T16:12:40.627Z,48.10
2018-06-20T16:15:15.637Z,48.00
2018-06-20T16:17:50.005Z,48.50
2018-06-20T16:20:29.785Z,48.20
2018-06-20T16:23:09.390Z,48.10
2018-06-20T16:25:48.883Z,48.00
2018-06-20T16:30:33.335Z,48.30
2018-06-20T16:33:07.579Z,48.30
2018-06-20T16:35:41.810Z,48.40
2018-06-20T16:38:16.178Z,47.40
2018-06-20T16:40:50.329Z,47.60
2018-06-20T16:43:24.638Z,48.70
2018-06-20T16:45:58.783Z,48.60
2018-06-20T16:48:33.150Z,47.90
2018-06-20T16:51:07.410Z,48.80
2018-06-20T16:53:41.878Z,47.80
2018-06-20T16:56:16.310Z,47.10
2018-06-20T16:58:50.599Z,46.90
2018-06-20T17:01:30.278Z,47.10
2018-06-20T17:04:04.415Z,46.80
2018-06-20T17:06:38.701Z,47.00
2018-06-20T17:09:12.818Z,47.20
2018-06-20T17:11:51.458Z,47.20
2018-06-20T17:14:31.007Z,47.60
2018-06-20T17:17:10.523Z,46.50
2018-06-20T17:19:50.224Z,46.80
2018-06-20T17:22:29.706Z,46.80
2018-06-20T17:25:09.247Z,47.50
2018-06-20T17:27:43.570Z,46.90
2018-06-20T17:30:17.966Z,46.00
2018-06-20T17:32:52.391Z,45.80
2018-06-20T17:35:26.786Z,46.00
2018-06-20T17:38:01.131Z,46.30
2018-06-20T17:40:35.345Z,45.20
2018-06-20T17:43:09.550Z,45.40
2018-06-20T17:48:17.874Z,45.40
2018-06-20T17:50:52.000Z,45.80
2018-06-20T17:53:26.371Z,46.00
2018-06-20T17:56:02.412Z,46.00
2018-06-20T17:58:36.866Z,46.70
2018-06-20T18:01:12.274Z,46.60
2018-06-20T18:03:46.646Z,47.10
2018-06-20T18:06:26.334Z,47.50
2018-06-20T18:09:05.950Z,47.80
2018-06-20T18:11:45.642Z,47.40
2018-06-20T18:14:25.214Z,47.80
2018-06-20T18:19:34.310Z,48.00
2018-06-20T18:22:08.626Z,48.70
2018-06-20T18:24:42.903Z,49.40
2018-06-20T18:27:17.254Z,49.60
2018-06-20T18:29:51.594Z,49.90
2018-06-20T18:32:25.819Z,50.00
2018-06-20T18:35:00.125Z,49.60
2018-06-20T18:37:34.439Z,50.20
2018-06-20T18:40:10.087Z,50.00
2018-06-20T18:42:44.548Z,50.30
2018-06-20T18:45:18.808Z,50.20
2018-06-20T18:47:58.607Z,49.70
2018-06-20T18:50:32.806Z,49.80
2018-06-20T18:53:07.196Z,49.90
2018-06-20T18:55:41.594Z,50.30
2018-06-20T18:58:21.510Z,50.50
2018-06-20T19:01:01.250Z,50.10
2018-06-20T19:03:40.879Z,50.30
2018-06-20T19:06:20.461Z,50.40
2018-06-20T19:08:57.503Z,50.70
2018-06-20T19:11:31.779Z,50.70
2018-06-20T19:14:06.179Z,51.30
2018-06-20T19:16:40.539Z,51.30
2018-06-20T19:21:48.984Z,51.90
2018-06-20T19:24:23.202Z,52.20
2018-06-20T19:26:57.760Z,52.40
2018-06-20T19:29:32.079Z,53.30
2018-06-20T19:32:06.458Z,54.90
2018-06-20T19:34:40.758Z,55.60
2018-06-20T19:37:14.983Z,56.20
2018-06-20T19:39:53.166Z,55.80
2018-06-20T19:42:27.443Z,56.10
2018-06-20T19:45:01.658Z,57.40
2018-06-20T19:47:36.098Z,58.00
2018-06-20T19:50:10.350Z,57.20
2018-06-20T19:52:44.659Z,57.70
2018-06-20T19:55:18.827Z,58.10
2018-06-20T19:57:53.166Z,58.40
2018-06-20T20:00:27.544Z,58.60
2018-06-20T20:03:01.847Z,58.80
2018-06-20T20:05:36.247Z,57.20
2018-06-20T20:08:10.622Z,58.80
2018-06-20T20:10:44.928Z,58.90
2018-06-20T20:13:19.278Z,58.80
2018-06-20T20:15:53.583Z,58.80
2018-06-20T20:18:28.032Z,59.30
2018-06-20T20:21:02.266Z,60.30
2018-06-20T20:23:36.602Z,61.00
2018-06-20T20:26:10.891Z,61.10
2018-06-20T20:28:45.171Z,61.30
2018-06-20T20:31:19.835Z,61.90
2018-06-20T20:33:54.261Z,62.20
2018-06-20T20:36:28.468Z,61.70
2018-06-20T20:39:02.957Z,62.00
2018-06-20T20:41:37.231Z,62.70
2018-06-20T20:44:11.574Z,63.40
2018-06-20T20:46:45.930Z,62.50
2018-06-20T20:49:20.412Z,63.00
2018-06-20T20:51:54.619Z,63.60
2018-06-20T20:54:28.923Z,63.50
2018-06-20T20:57:03.232Z,63.70
2018-06-20T20:59:37.541Z,64.10
2018-06-20T21:02:11.721Z,64.70
2018-06-20T21:07:20.117Z,64.60
2018-06-20T21:09:54.567Z,64.60
2018-06-20T21:12:29.015Z,64.40
2018-06-20T21:15:03.392Z,64.40
2018-06-20T21:17:38.506Z,64.60
2018-06-20T21:20:12.821Z,64.50
2018-06-20T21:22:47.013Z,64.40
2018-06-20T21:25:21.375Z,63.80
2018-06-20T21:27:55.679Z,64.30
2018-06-20T21:30:30.042Z,65.00
2018-06-20T21:33:04.290Z,63.80
2018-06-20T21:35:38.643Z,65.00
2018-06-20T21:40:47.022Z,66.10
2018-06-20T21:43:21.302Z,66.20
2018-06-20T21:45:55.563Z,66.30
2018-06-20T21:48:29.859Z,66.30
2018-06-20T21:51:04.099Z,66.00
2018-06-20T21:53:38.446Z,65.30
2018-06-20T21:56:12.774Z,65.30
2018-06-20T21:58:47.199Z,65.20
2018-06-20T22:01:21.436Z,66.40
2018-06-20T22:03:55.821Z,66.10
2018-06-20T22:06:29.975Z,66.30
2018-06-20T22:09:06.324Z,66.70
2018-06-20T22:11:40.636Z,66.40
2018-06-20T22:14:15.012Z,66.90
2018-06-20T22:16:49.387Z,67.40
2018-06-20T22:19:23.793Z,67.40
2018-06-20T22:21:58.016Z,67.70
2018-06-20T22:24:32.331Z,68.40
2018-06-20T22:27:06.607Z,69.10
2018-06-20T22:29:41.003Z,68.70
2018-06-20T22:32:15.381Z,68.70
2018-06-20T22:34:49.659Z,68.90
2018-06-20T22:37:23.790Z,69.60
2018-06-20T22:39:58.215Z,69.80
2018-06-20T22:42:32.706Z,70.40
2018-06-20T22:45:06.933Z,71.00
2018-06-20T22:47:41.234Z,71.40
2018-06-20T22:50:15.506Z,71.40
2018-06-20T22:52:49.837Z,71.40
2018-06-20T22:55:24.138Z,71.70
2018-06-20T22:57:58.542Z,71.90
2018-06-20T23:00:32.736Z,72.10
2018-06-20T23:03:07.203Z,72.00
2018-06-20T23:05:41.556Z,71.90
2018-06-20T23:08:15.712Z,72.40
2018-06-20T23:10:50.115Z,72.90
2018-06-20T23:13:24.438Z,72.90
2018-06-20T23:15:59.055Z,73.20
2018-06-20T23:18:33.274Z,73.10
2018-06-20T23:21:07.643Z,73.10
2018-06-20T23:23:41.975Z,73.30
2018-06-20T23:26:16.315Z,73.70
2018-06-20T23:28:50.549Z,73.50
2018-06-20T23:31:25.064Z,73.80
2018-06-20T23:33:59.251Z,73.60
2018-06-20T23:36:33.607Z,73.90
2018-06-20T23:39:09.099Z,73.90
2018-06-20T23:41:43.543Z,74.70
2018-06-20T23:44:17.742Z,74.60
2018-06-20T23:46:52.080Z,74.80
2018-06-20T23:49:26.495Z,74.80
2018-06-20T23:52:01.050Z,73.10
2018-06-20T23:54:35.211Z,72.40
2018-06-20T23:57:09.432Z,72.10
2018-06-20T23:59:43.711Z,71.40
